sensor_id;sensor_type;location;lat;lon;timestamp;P1;durP1;ratioP1;P2;durP2;ratioP2
11313;SDS011;5712;48.858;9.206;2023-07-20T00:00:10;2.47;;;2.07;;
11313;SDS011;5712;48.858;9.206;2023-07-20T00:02:38;2.97;;;1.80;;
11313;SDS011;5712;48.858;9.206;2023-07-20T00:05:05;4.43;;;1.97;;
11313;SDS011;5712;48.858;9.206;2023-07-20T00:07:32;3.40;;;2.20;;
11313;SDS011;5712;48.858;9.206;2023-07-20T00:09:58;4.10;;;1.57;;
11313;SDS011;5712;48.858;9.206;2023-07-20T00:12:26;3.00;;;2.07;;
11313;SDS011;5712;48.858;9.206;2023-07-20T00:14:53;2.73;;;2.00;;
11313;SDS011;5712;48.858;9.206;2023-07-20T00:17:19;2.60;;;1.90;;
11313;SDS011;5712;48.858;9.206;2023-07-20T00:19:46;3.60;;;2.10;;
11313;SDS011;5712;48.858;9.206;2023-07-20T00:22:12;3.03;;;2.40;;
11313;SDS011;5712;48.858;9.206;2023-07-20T00:24:39;2.50;;;2.30;;
11313;SDS011;5712;48.858;9.206;2023-07-20T00:27:06;2.30;;;2.00;;
11313;SDS011;5712;48.858;9.206;2023-07-20T00:29:34;3.13;;;2.30;;
11313;SDS011;5712;48.858;9.206;2023-07-20T00:32:00;2.40;;;2.20;;
11313;SDS011;5712;48.858;9.206;2023-07-20T00:34:27;2.67;;;2.10;;
11313;SDS011;5712;48.858;9.206;2023-07-20T00:36:53;4.50;;;2.17;;
11313;SDS011;5712;48.858;9.206;2023-07-20T00:39:19;3.57;;;2.03;;
11313;SDS011;5712;48.858;9.206;2023-07-20T00:41:46;4.03;;;2.10;;
11313;SDS011;5712;48.858;9.206;2023-07-20T00:44:12;4.00;;;1.90;;
11313;SDS011;5712;48.858;9.206;2023-07-20T00:46:40;2.00;;;1.80;;
11313;SDS011;5712;48.858;9.206;2023-07-20T00:49:09;3.20;;;1.83;;
11313;SDS011;5712;48.858;9.206;2023-07-20T00:51:35;3.20;;;2.00;;
11313;SDS011;5712;48.858;9.206;2023-07-20T00:54:02;2.90;;;1.80;;
11313;SDS011;5712;48.858;9.206;2023-07-20T00:56:29;1.90;;;1.50;;
11313;SDS011;5712;48.858;9.206;2023-07-20T00:58:55;4.80;;;1.87;;
11313;SDS011;5712;48.858;9.206;2023-07-20T01:01:23;3.20;;;1.60;;
11313;SDS011;5712;48.858;9.206;2023-07-20T01:03:51;1.90;;;1.70;;
11313;SDS011;5712;48.858;9.206;2023-07-20T01:06:20;2.20;;;1.70;;
11313;SDS011;5712;48.858;9.206;2023-07-20T01:08:55;2.87;;;1.83;;
11313;SDS011;5712;48.858;9.206;2023-07-20T01:11:36;2.40;;;1.47;;
11313;SDS011;5712;48.858;9.206;2023-07-20T01:14:07;2.43;;;1.80;;
11313;SDS011;5712;48.858;9.206;2023-07-20T01:16:34;3.27;;;1.73;;
11313;SDS011;5712;48.858;9.206;2023-07-20T01:19:02;2.90;;;1.63;;
11313;SDS011;5712;48.858;9.206;2023-07-20T01:21:31;3.37;;;1.80;;
11313;SDS011;5712;48.858;9.206;2023-07-20T01:24:18;3.00;;;1.70;;
11313;SDS011;5712;48.858;9.206;2023-07-20T01:30:14;1.70;;;1.57;;
11313;SDS011;5712;48.858;9.206;2023-07-20T01:33:00;2.40;;;1.90;;
11313;SDS011;5712;48.858;9.206;2023-07-20T01:35:28;2.57;;;1.70;;
11313;SDS011;5712;48.858;9.206;2023-07-20T01:37:56;1.67;;;1.50;;
11313;SDS011;5712;48.858;9.206;2023-07-20T01:40:24;2.77;;;1.40;;
11313;SDS011;5712;48.858;9.206;2023-07-20T01:42:51;2.30;;;1.57;;
11313;SDS011;5712;48.858;9.206;2023-07-20T01:45:18;2.10;;;1.50;;
11313;SDS011;5712;48.858;9.206;2023-07-20T01:47:45;3.30;;;1.60;;
11313;SDS011;5712;48.858;9.206;2023-07-20T01:50:13;2.27;;;1.60;;
11313;SDS011;5712;48.858;9.206;2023-07-20T01:52:39;1.80;;;1.57;;
11313;SDS011;5712;48.858;9.206;2023-07-20T01:55:06;1.63;;;1.53;;
11313;SDS011;5712;48.858;9.206;2023-07-20T01:57:33;2.63;;;1.70;;
11313;SDS011;5712;48.858;9.206;2023-07-20T02:00:00;2.20;;;1.80;;
11313;SDS011;5712;48.858;9.206;2023-07-20T02:02:27;3.93;;;2.07;;
11313;SDS011;5712;48.858;9.206;2023-07-20T02:04:53;3.50;;;1.90;;
11313;SDS011;5712;48.858;9.206;2023-07-20T02:07:21;2.57;;;1.70;;
11313;SDS011;5712;48.858;9.206;2023-07-20T02:09:48;2.73;;;1.90;;
11313;SDS011;5712;48.858;9.206;2023-07-20T02:12:14;2.13;;;1.90;;
11313;SDS011;5712;48.858;9.206;2023-07-20T02:14:41;2.07;;;1.73;;
11313;SDS011;5712;48.858;9.206;2023-07-20T02:17:08;3.20;;;1.90;;
11313;SDS011;5712;48.858;9.206;2023-07-20T02:19:35;3.87;;;1.80;;
11313;SDS011;5712;48.858;9.206;2023-07-20T02:22:03;2.50;;;1.90;;
11313;SDS011;5712;48.858;9.206;2023-07-20T02:24:31;2.90;;;1.80;;
11313;SDS011;5712;48.858;9.206;2023-07-20T02:26:57;3.30;;;2.10;;
11313;SDS011;5712;48.858;9.206;2023-07-20T02:29:24;2.10;;;1.90;;
11313;SDS011;5712;48.858;9.206;2023-07-20T02:31:50;4.50;;;1.80;;
11313;SDS011;5712;48.858;9.206;2023-07-20T02:34:16;2.33;;;1.90;;
11313;SDS011;5712;48.858;9.206;2023-07-20T02:36:43;2.40;;;1.73;;
11313;SDS011;5712;48.858;9.206;2023-07-20T02:39:11;2.10;;;1.90;;
11313;SDS011;5712;48.858;9.206;2023-07-20T02:41:39;2.80;;;2.17;;
11313;SDS011;5712;48.858;9.206;2023-07-20T02:44:06;4.63;;;2.20;;
11313;SDS011;5712;48.858;9.206;2023-07-20T02:46:33;3.77;;;1.80;;
11313;SDS011;5712;48.858;9.206;2023-07-20T02:49:00;2.50;;;1.90;;
11313;SDS011;5712;48.858;9.206;2023-07-20T02:51:26;2.63;;;2.10;;
11313;SDS011;5712;48.858;9.206;2023-07-20T02:53:53;3.50;;;2.23;;
11313;SDS011;5712;48.858;9.206;2023-07-20T02:56:19;3.87;;;2.30;;
11313;SDS011;5712;48.858;9.206;2023-07-20T02:58:49;2.20;;;1.87;;
11313;SDS011;5712;48.858;9.206;2023-07-20T03:01:16;2.47;;;2.00;;
11313;SDS011;5712;48.858;9.206;2023-07-20T03:03:42;2.40;;;1.93;;
11313;SDS011;5712;48.858;9.206;2023-07-20T03:06:11;2.93;;;2.23;;
11313;SDS011;5712;48.858;9.206;2023-07-20T03:08:38;3.70;;;2.43;;
11313;SDS011;5712;48.858;9.206;2023-07-20T03:11:04;4.17;;;2.20;;
11313;SDS011;5712;48.858;9.206;2023-07-20T03:13:31;3.80;;;2.40;;
11313;SDS011;5712;48.858;9.206;2023-07-20T03:15:59;3.27;;;1.90;;
11313;SDS011;5712;48.858;9.206;2023-07-20T03:18:25;3.87;;;2.03;;
11313;SDS011;5712;48.858;9.206;2023-07-20T03:20:51;4.30;;;1.90;;
11313;SDS011;5712;48.858;9.206;2023-07-20T03:23:18;3.57;;;2.40;;
11313;SDS011;5712;48.858;9.206;2023-07-20T03:25:44;2.90;;;2.27;;
11313;SDS011;5712;48.858;9.206;2023-07-20T03:28:11;3.73;;;2.50;;
11313;SDS011;5712;48.858;9.206;2023-07-20T03:30:37;2.67;;;2.10;;
11313;SDS011;5712;48.858;9.206;2023-07-20T03:33:08;3.87;;;2.03;;
11313;SDS011;5712;48.858;9.206;2023-07-20T03:35:34;3.43;;;1.67;;
11313;SDS011;5712;48.858;9.206;2023-07-20T03:38:01;2.00;;;1.80;;
11313;SDS011;5712;48.858;9.206;2023-07-20T03:40:27;3.73;;;2.50;;
11313;SDS011;5712;48.858;9.206;2023-07-20T03:42:53;4.40;;;2.03;;
11313;SDS011;5712;48.858;9.206;2023-07-20T03:45:20;2.30;;;1.93;;
11313;SDS011;5712;48.858;9.206;2023-07-20T03:47:49;4.87;;;2.23;;
11313;SDS011;5712;48.858;9.206;2023-07-20T03:50:17;2.03;;;1.80;;
11313;SDS011;5712;48.858;9.206;2023-07-20T03:52:43;3.07;;;1.70;;
11313;SDS011;5712;48.858;9.206;2023-07-20T03:55:10;2.40;;;2.07;;
11313;SDS011;5712;48.858;9.206;2023-07-20T03:57:36;2.33;;;1.97;;
11313;SDS011;5712;48.858;9.206;2023-07-20T04:00:03;3.87;;;2.10;;
11313;SDS011;5712;48.858;9.206;2023-07-20T04:02:32;3.77;;;2.17;;
11313;SDS011;5712;48.858;9.206;2023-07-20T04:04:59;3.90;;;2.53;;
11313;SDS011;5712;48.858;9.206;2023-07-20T04:07:27;4.30;;;1.93;;
11313;SDS011;5712;48.858;9.206;2023-07-20T04:09:53;2.83;;;2.17;;
11313;SDS011;5712;48.858;9.206;2023-07-20T04:12:20;4.97;;;2.47;;
11313;SDS011;5712;48.858;9.206;2023-07-20T04:14:46;2.70;;;2.00;;
11313;SDS011;5712;48.858;9.206;2023-07-20T04:17:13;2.30;;;2.07;;
11313;SDS011;5712;48.858;9.206;2023-07-20T04:19:39;2.67;;;2.10;;
11313;SDS011;5712;48.858;9.206;2023-07-20T04:22:05;3.03;;;1.83;;
11313;SDS011;5712;48.858;9.206;2023-07-20T04:24:33;4.00;;;2.20;;
11313;SDS011;5712;48.858;9.206;2023-07-20T04:27:00;2.20;;;2.00;;
11313;SDS011;5712;48.858;9.206;2023-07-20T04:29:26;3.10;;;2.00;;
11313;SDS011;5712;48.858;9.206;2023-07-20T04:31:53;4.13;;;2.33;;
11313;SDS011;5712;48.858;9.206;2023-07-20T04:34:19;2.73;;;2.10;;
11313;SDS011;5712;48.858;9.206;2023-07-20T04:36:46;3.67;;;2.00;;
11313;SDS011;5712;48.858;9.206;2023-07-20T04:39:12;6.43;;;2.27;;
11313;SDS011;5712;48.858;9.206;2023-07-20T04:41:40;5.10;;;2.00;;
11313;SDS011;5712;48.858;9.206;2023-07-20T04:44:07;2.33;;;1.80;;
11313;SDS011;5712;48.858;9.206;2023-07-20T04:46:33;3.73;;;2.20;;
11313;SDS011;5712;48.858;9.206;2023-07-20T04:48:59;2.73;;;1.97;;
11313;SDS011;5712;48.858;9.206;2023-07-20T04:51:26;3.33;;;2.00;;
11313;SDS011;5712;48.858;9.206;2023-07-20T04:53:55;2.93;;;2.17;;
11313;SDS011;5712;48.858;9.206;2023-07-20T04:56:21;4.20;;;1.97;;
11313;SDS011;5712;48.858;9.206;2023-07-20T04:58:50;3.53;;;2.20;;
11313;SDS011;5712;48.858;9.206;2023-07-20T05:01:16;3.47;;;2.30;;
11313;SDS011;5712;48.858;9.206;2023-07-20T05:03:43;2.97;;;2.20;;
11313;SDS011;5712;48.858;9.206;2023-07-20T05:06:09;3.40;;;1.80;;
11313;SDS011;5712;48.858;9.206;2023-07-20T05:08:36;2.83;;;2.00;;
11313;SDS011;5712;48.858;9.206;2023-07-20T05:11:02;3.33;;;2.00;;
11313;SDS011;5712;48.858;9.206;2023-07-20T05:13:29;3.40;;;2.10;;
11313;SDS011;5712;48.858;9.206;2023-07-20T05:15:57;2.43;;;2.00;;
11313;SDS011;5712;48.858;9.206;2023-07-20T05:18:23;2.87;;;2.40;;
11313;SDS011;5712;48.858;9.206;2023-07-20T05:20:50;4.77;;;2.00;;
11313;SDS011;5712;48.858;9.206;2023-07-20T05:23:17;2.20;;;1.80;;
11313;SDS011;5712;48.858;9.206;2023-07-20T05:25:44;2.90;;;2.03;;
11313;SDS011;5712;48.858;9.206;2023-07-20T05:28:11;3.53;;;1.80;;
11313;SDS011;5712;48.858;9.206;2023-07-20T05:30:37;3.13;;;2.20;;
11313;SDS011;5712;48.858;9.206;2023-07-20T05:33:05;2.57;;;1.80;;
11313;SDS011;5712;48.858;9.206;2023-07-20T05:35:31;2.67;;;2.13;;
11313;SDS011;5712;48.858;9.206;2023-07-20T05:37:58;4.03;;;1.83;;
11313;SDS011;5712;48.858;9.206;2023-07-20T05:40:24;3.20;;;2.30;;
11313;SDS011;5712;48.858;9.206;2023-07-20T05:42:51;4.87;;;2.20;;
11313;SDS011;5712;48.858;9.206;2023-07-20T05:45:18;3.53;;;2.17;;
11313;SDS011;5712;48.858;9.206;2023-07-20T05:47:45;6.77;;;3.20;;
11313;SDS011;5712;48.858;9.206;2023-07-20T05:50:13;3.90;;;2.30;;
11313;SDS011;5712;48.858;9.206;2023-07-20T05:52:40;4.47;;;2.10;;
11313;SDS011;5712;48.858;9.206;2023-07-20T05:55:07;3.63;;;1.90;;
11313;SDS011;5712;48.858;9.206;2023-07-20T05:57:33;2.57;;;1.77;;
11313;SDS011;5712;48.858;9.206;2023-07-20T06:00:00;3.80;;;2.00;;
11313;SDS011;5712;48.858;9.206;2023-07-20T06:02:28;3.40;;;2.13;;
11313;SDS011;5712;48.858;9.206;2023-07-20T06:04:54;3.93;;;1.93;;
11313;SDS011;5712;48.858;9.206;2023-07-20T06:07:22;5.33;;;2.00;;
11313;SDS011;5712;48.858;9.206;2023-07-20T06:09:49;3.03;;;2.20;;
11313;SDS011;5712;48.858;9.206;2023-07-20T06:12:15;3.80;;;1.90;;
11313;SDS011;5712;48.858;9.206;2023-07-20T06:14:42;3.40;;;1.87;;
11313;SDS011;5712;48.858;9.206;2023-07-20T06:17:08;3.77;;;1.70;;
11313;SDS011;5712;48.858;9.206;2023-07-20T06:19:35;2.80;;;1.93;;
11313;SDS011;5712;48.858;9.206;2023-07-20T06:22:01;2.67;;;1.80;;
11313;SDS011;5712;48.858;9.206;2023-07-20T06:24:29;2.37;;;1.73;;
11313;SDS011;5712;48.858;9.206;2023-07-20T06:26:56;2.10;;;1.87;;
11313;SDS011;5712;48.858;9.206;2023-07-20T06:29:22;2.83;;;1.60;;
11313;SDS011;5712;48.858;9.206;2023-07-20T06:31:49;4.20;;;1.90;;
11313;SDS011;5712;48.858;9.206;2023-07-20T06:34:15;3.20;;;1.83;;
11313;SDS011;5712;48.858;9.206;2023-07-20T06:36:42;3.47;;;1.77;;
11313;SDS011;5712;48.858;9.206;2023-07-20T06:39:09;3.33;;;1.70;;
11313;SDS011;5712;48.858;9.206;2023-07-20T06:41:37;2.87;;;1.80;;
11313;SDS011;5712;48.858;9.206;2023-07-20T06:44:03;4.53;;;1.80;;
11313;SDS011;5712;48.858;9.206;2023-07-20T06:46:30;3.92;;;1.85;;
11313;SDS011;5712;48.858;9.206;2023-07-20T06:48:56;2.17;;;1.77;;
11313;SDS011;5712;48.858;9.206;2023-07-20T06:51:23;3.97;;;1.93;;
11313;SDS011;5712;48.858;9.206;2023-07-20T06:53:49;2.78;;;1.48;;
11313;SDS011;5712;48.858;9.206;2023-07-20T06:56:16;1.83;;;1.63;;
11313;SDS011;5712;48.858;9.206;2023-07-20T06:58:44;3.30;;;1.60;;
11313;SDS011;5712;48.858;9.206;2023-07-20T07:01:10;1.80;;;1.70;;
11313;SDS011;5712;48.858;9.206;2023-07-20T07:03:37;2.67;;;1.85;;
11313;SDS011;5712;48.858;9.206;2023-07-20T07:06:03;2.93;;;2.03;;
11313;SDS011;5712;48.858;9.206;2023-07-20T07:08:30;3.40;;;1.80;;
11313;SDS011;5712;48.858;9.206;2023-07-20T07:10:57;2.30;;;1.90;;
11313;SDS011;5712;48.858;9.206;2023-07-20T07:13:23;2.53;;;1.80;;
11313;SDS011;5712;48.858;9.206;2023-07-20T07:15:51;3.90;;;1.97;;
11313;SDS011;5712;48.858;9.206;2023-07-20T07:18:18;2.87;;;1.90;;
11313;SDS011;5712;48.858;9.206;2023-07-20T07:20:54;2.90;;;2.10;;
11313;SDS011;5712;48.858;9.206;2023-07-20T07:23:20;2.97;;;2.00;;
11313;SDS011;5712;48.858;9.206;2023-07-20T07:25:47;2.50;;;1.70;;
11313;SDS011;5712;48.858;9.206;2023-07-20T07:28:14;1.87;;;1.63;;
11313;SDS011;5712;48.858;9.206;2023-07-20T07:30:41;3.67;;;2.30;;
11313;SDS011;5712;48.858;9.206;2023-07-20T07:33:09;2.60;;;1.83;;
11313;SDS011;5712;48.858;9.206;2023-07-20T07:35:36;4.57;;;2.10;;
11313;SDS011;5712;48.858;9.206;2023-07-20T07:38:02;3.30;;;1.90;;
11313;SDS011;5712;48.858;9.206;2023-07-20T07:40:29;3.00;;;2.07;;
11313;SDS011;5712;48.858;9.206;2023-07-20T07:42:55;2.60;;;2.03;;
11313;SDS011;5712;48.858;9.206;2023-07-20T07:45:22;2.20;;;1.50;;
11313;SDS011;5712;48.858;9.206;2023-07-20T07:47:48;2.53;;;1.70;;
11313;SDS011;5712;48.858;9.206;2023-07-20T07:50:16;1.80;;;1.70;;
11313;SDS011;5712;48.858;9.206;2023-07-20T07:52:42;2.77;;;1.80;;
11313;SDS011;5712;48.858;9.206;2023-07-20T07:55:09;5.43;;;2.20;;
11313;SDS011;5712;48.858;9.206;2023-07-20T07:57:35;2.10;;;1.77;;
11313;SDS011;5712;48.858;9.206;2023-07-20T08:00:02;2.17;;;1.67;;
11313;SDS011;5712;48.858;9.206;2023-07-20T08:02:29;2.33;;;1.80;;
11313;SDS011;5712;48.858;9.206;2023-07-20T08:04:56;2.33;;;1.80;;
11313;SDS011;5712;48.858;9.206;2023-07-20T08:07:24;3.20;;;1.87;;
11313;SDS011;5712;48.858;9.206;2023-07-20T08:09:51;3.80;;;1.90;;
11313;SDS011;5712;48.858;9.206;2023-07-20T08:12:17;4.60;;;2.17;;
11313;SDS011;5712;48.858;9.206;2023-07-20T08:14:45;3.77;;;1.77;;
11313;SDS011;5712;48.858;9.206;2023-07-20T08:17:11;2.23;;;1.53;;
11313;SDS011;5712;48.858;9.206;2023-07-20T08:19:38;3.33;;;2.23;;
11313;SDS011;5712;48.858;9.206;2023-07-20T08:22:06;4.10;;;2.00;;
11313;SDS011;5712;48.858;9.206;2023-07-20T08:24:35;2.83;;;2.03;;
11313;SDS011;5712;48.858;9.206;2023-07-20T08:27:05;3.20;;;1.80;;
11313;SDS011;5712;48.858;9.206;2023-07-20T08:29:31;3.10;;;1.90;;
11313;SDS011;5712;48.858;9.206;2023-07-20T08:31:58;3.93;;;2.20;;
11313;SDS011;5712;48.858;9.206;2023-07-20T08:34:24;3.37;;;2.07;;
11313;SDS011;5712;48.858;9.206;2023-07-20T08:36:51;4.17;;;2.10;;
11313;SDS011;5712;48.858;9.206;2023-07-20T08:39:17;2.20;;;2.00;;
11313;SDS011;5712;48.858;9.206;2023-07-20T08:41:48;2.33;;;1.70;;
11313;SDS011;5712;48.858;9.206;2023-07-20T08:44:15;2.47;;;1.87;;
11313;SDS011;5712;48.858;9.206;2023-07-20T08:46:41;3.17;;;1.87;;
11313;SDS011;5712;48.858;9.206;2023-07-20T08:49:09;2.30;;;2.00;;
11313;SDS011;5712;48.858;9.206;2023-07-20T08:51:37;4.20;;;1.90;;
11313;SDS011;5712;48.858;9.206;2023-07-20T08:54:05;2.73;;;1.90;;
11313;SDS011;5712;48.858;9.206;2023-07-20T08:56:33;2.13;;;1.67;;
11313;SDS011;5712;48.858;9.206;2023-07-20T08:59:02;1.83;;;1.50;;
11313;SDS011;5712;48.858;9.206;2023-07-20T09:01:29;2.30;;;1.57;;
11313;SDS011;5712;48.858;9.206;2023-07-20T09:03:57;2.77;;;1.97;;
11313;SDS011;5712;48.858;9.206;2023-07-20T09:06:23;2.70;;;1.80;;
11313;SDS011;5712;48.858;9.206;2023-07-20T09:08:50;1.83;;;1.50;;
11313;SDS011;5712;48.858;9.206;2023-07-20T09:11:17;2.43;;;2.00;;
11313;SDS011;5712;48.858;9.206;2023-07-20T09:13:43;3.47;;;2.10;;
11313;SDS011;5712;48.858;9.206;2023-07-20T09:16:12;3.23;;;1.60;;
11313;SDS011;5712;48.858;9.206;2023-07-20T09:18:39;2.90;;;1.80;;
11313;SDS011;5712;48.858;9.206;2023-07-20T09:21:05;4.60;;;1.90;;
11313;SDS011;5712;48.858;9.206;2023-07-20T09:23:32;2.10;;;1.90;;
11313;SDS011;5712;48.858;9.206;2023-07-20T09:26:00;3.87;;;1.93;;
11313;SDS011;5712;48.858;9.206;2023-07-20T09:28:27;3.73;;;1.97;;
11313;SDS011;5712;48.858;9.206;2023-07-20T09:30:54;2.20;;;1.70;;
11313;SDS011;5712;48.858;9.206;2023-07-20T09:33:23;6.87;;;3.20;;
11313;SDS011;5712;48.858;9.206;2023-07-20T09:35:50;2.47;;;1.93;;
11313;SDS011;5712;48.858;9.206;2023-07-20T09:38:17;1.87;;;1.70;;
11313;SDS011;5712;48.858;9.206;2023-07-20T09:40:43;3.07;;;1.63;;
11313;SDS011;5712;48.858;9.206;2023-07-20T09:43:10;2.23;;;1.50;;
11313;SDS011;5712;48.858;9.206;2023-07-20T09:45:39;1.67;;;1.40;;
11313;SDS011;5712;48.858;9.206;2023-07-20T09:48:06;1.97;;;1.40;;
11313;SDS011;5712;48.858;9.206;2023-07-20T09:50:35;1.87;;;1.50;;
11313;SDS011;5712;48.858;9.206;2023-07-20T09:53:06;1.53;;;1.30;;
11313;SDS011;5712;48.858;9.206;2023-07-20T09:55:33;3.00;;;1.37;;
11313;SDS011;5712;48.858;9.206;2023-07-20T09:58:01;1.80;;;1.63;;
11313;SDS011;5712;48.858;9.206;2023-07-20T10:00:29;2.53;;;1.40;;
11313;SDS011;5712;48.858;9.206;2023-07-20T10:02:55;2.13;;;1.30;;
11313;SDS011;5712;48.858;9.206;2023-07-20T10:05:24;2.50;;;1.47;;
11313;SDS011;5712;48.858;9.206;2023-07-20T10:07:54;2.33;;;1.30;;
11313;SDS011;5712;48.858;9.206;2023-07-20T10:10:21;4.03;;;1.43;;
11313;SDS011;5712;48.858;9.206;2023-07-20T10:12:48;2.23;;;1.30;;
11313;SDS011;5712;48.858;9.206;2023-07-20T10:15:18;1.90;;;1.43;;
11313;SDS011;5712;48.858;9.206;2023-07-20T10:17:49;2.00;;;1.20;;
11313;SDS011;5712;48.858;9.206;2023-07-20T10:20:23;2.60;;;1.47;;
11313;SDS011;5712;48.858;9.206;2023-07-20T10:22:54;1.80;;;1.27;;
11313;SDS011;5712;48.858;9.206;2023-07-20T10:25:23;1.53;;;1.30;;
11313;SDS011;5712;48.858;9.206;2023-07-20T10:27:49;1.85;;;1.30;;
11313;SDS011;5712;48.858;9.206;2023-07-20T10:30:16;3.23;;;1.40;;
11313;SDS011;5712;48.858;9.206;2023-07-20T10:32:44;1.53;;;0.90;;
11313;SDS011;5712;48.858;9.206;2023-07-20T10:35:11;2.07;;;1.20;;
11313;SDS011;5712;48.858;9.206;2023-07-20T10:37:45;1.40;;;1.07;;
11313;SDS011;5712;48.858;9.206;2023-07-20T10:40:28;2.00;;;1.20;;
11313;SDS011;5712;48.858;9.206;2023-07-20T10:42:57;2.40;;;1.27;;
11313;SDS011;5712;48.858;9.206;2023-07-20T10:45:34;1.97;;;1.20;;
11313;SDS011;5712;48.858;9.206;2023-07-20T10:48:05;1.50;;;1.20;;
11313;SDS011;5712;48.858;9.206;2023-07-20T10:50:32;2.00;;;1.10;;
11313;SDS011;5712;48.858;9.206;2023-07-20T10:53:09;2.00;;;1.50;;
11313;SDS011;5712;48.858;9.206;2023-07-20T10:55:38;2.20;;;1.50;;
11313;SDS011;5712;48.858;9.206;2023-07-20T10:58:08;4.43;;;1.30;;
11313;SDS011;5712;48.858;9.206;2023-07-20T11:00:36;2.13;;;1.20;;
11313;SDS011;5712;48.858;9.206;2023-07-20T11:03:04;1.20;;;1.10;;
11313;SDS011;5712;48.858;9.206;2023-07-20T11:05:39;1.73;;;1.20;;
11313;SDS011;5712;48.858;9.206;2023-07-20T11:08:09;1.70;;;1.20;;
11313;SDS011;5712;48.858;9.206;2023-07-20T11:10:38;1.40;;;1.27;;
11313;SDS011;5712;48.858;9.206;2023-07-20T11:13:18;1.60;;;1.20;;
11313;SDS011;5712;48.858;9.206;2023-07-20T11:15:46;1.97;;;1.10;;
11313;SDS011;5712;48.858;9.206;2023-07-20T11:18:14;4.10;;;1.50;;
11313;SDS011;5712;48.858;9.206;2023-07-20T11:20:41;1.30;;;1.20;;
11313;SDS011;5712;48.858;9.206;2023-07-20T11:23:08;1.60;;;1.20;;
11313;SDS011;5712;48.858;9.206;2023-07-20T11:25:39;2.67;;;1.52;;
11313;SDS011;5712;48.858;9.206;2023-07-20T11:28:06;2.43;;;1.17;;
11313;SDS011;5712;48.858;9.206;2023-07-20T11:30:33;1.55;;;1.00;;
11313;SDS011;5712;48.858;9.206;2023-07-20T11:33:00;1.77;;;1.20;;
11313;SDS011;5712;48.858;9.206;2023-07-20T11:35:26;1.85;;;1.10;;
11313;SDS011;5712;48.858;9.206;2023-07-20T11:37:53;1.40;;;1.13;;
11313;SDS011;5712;48.858;9.206;2023-07-20T11:40:21;2.83;;;1.10;;
11313;SDS011;5712;48.858;9.206;2023-07-20T11:42:50;2.17;;;1.08;;
11313;SDS011;5712;48.858;9.206;2023-07-20T11:45:17;2.43;;;1.00;;
11313;SDS011;5712;48.858;9.206;2023-07-20T11:47:43;1.90;;;1.07;;
11313;SDS011;5712;48.858;9.206;2023-07-20T11:50:10;1.70;;;1.27;;
11313;SDS011;5712;48.858;9.206;2023-07-20T11:52:39;2.80;;;1.10;;
11313;SDS011;5712;48.858;9.206;2023-07-20T11:55:06;1.30;;;1.10;;
11313;SDS011;5712;48.858;9.206;2023-07-20T11:57:34;1.58;;;1.00;;
11313;SDS011;5712;48.858;9.206;2023-07-20T12:00:02;2.45;;;1.10;;
11313;SDS011;5712;48.858;9.206;2023-07-20T12:02:34;3.05;;;1.35;;
11313;SDS011;5712;48.858;9.206;2023-07-20T12:05:01;3.40;;;1.20;;
11313;SDS011;5712;48.858;9.206;2023-07-20T12:07:29;2.30;;;1.23;;
11313;SDS011;5712;48.858;9.206;2023-07-20T12:10:05;2.08;;;1.10;;
11313;SDS011;5712;48.858;9.206;2023-07-20T12:12:32;2.10;;;1.30;;
11313;SDS011;5712;48.858;9.206;2023-07-20T12:15:16;1.40;;;1.30;;
11313;SDS011;5712;48.858;9.206;2023-07-20T12:17:43;1.23;;;1.10;;
11313;SDS011;5712;48.858;9.206;2023-07-20T12:20:10;1.40;;;1.27;;
11313;SDS011;5712;48.858;9.206;2023-07-20T12:22:38;2.35;;;1.00;;
11313;SDS011;5712;48.858;9.206;2023-07-20T12:25:05;1.92;;;1.05;;
11313;SDS011;5712;48.858;9.206;2023-07-20T12:27:32;2.00;;;1.15;;
11313;SDS011;5712;48.858;9.206;2023-07-20T12:29:58;2.33;;;1.58;;
11313;SDS011;5712;48.858;9.206;2023-07-20T12:32:26;3.28;;;1.30;;
11313;SDS011;5712;48.858;9.206;2023-07-20T12:34:52;2.00;;;1.30;;
11313;SDS011;5712;48.858;9.206;2023-07-20T12:37:19;3.35;;;1.40;;
11313;SDS011;5712;48.858;9.206;2023-07-20T12:39:45;2.30;;;1.17;;
11313;SDS011;5712;48.858;9.206;2023-07-20T12:42:13;1.50;;;1.10;;
11313;SDS011;5712;48.858;9.206;2023-07-20T12:44:40;1.77;;;1.20;;
11313;SDS011;5712;48.858;9.206;2023-07-20T12:47:06;1.98;;;1.10;;
11313;SDS011;5712;48.858;9.206;2023-07-20T12:49:34;1.67;;;1.10;;
11313;SDS011;5712;48.858;9.206;2023-07-20T12:52:01;4.40;;;1.20;;
11313;SDS011;5712;48.858;9.206;2023-07-20T12:54:28;2.15;;;1.10;;
11313;SDS011;5712;48.858;9.206;2023-07-20T12:56:54;3.28;;;1.30;;
11313;SDS011;5712;48.858;9.206;2023-07-20T12:59:21;2.37;;;1.30;;
11313;SDS011;5712;48.858;9.206;2023-07-20T13:01:47;1.53;;;1.10;;
11313;SDS011;5712;48.858;9.206;2023-07-20T13:04:14;2.20;;;1.10;;
11313;SDS011;5712;48.858;9.206;2023-07-20T13:06:42;1.88;;;1.20;;
11313;SDS011;5712;48.858;9.206;2023-07-20T13:09:08;2.35;;;1.33;;
11313;SDS011;5712;48.858;9.206;2023-07-20T13:11:35;1.75;;;1.15;;
11313;SDS011;5712;48.858;9.206;2023-07-20T13:14:01;2.35;;;1.20;;
11313;SDS011;5712;48.858;9.206;2023-07-20T13:16:28;2.58;;;1.23;;
11313;SDS011;5712;48.858;9.206;2023-07-20T13:18:55;1.23;;;1.10;;
11313;SDS011;5712;48.858;9.206;2023-07-20T13:21:22;1.15;;;1.05;;
11313;SDS011;5712;48.858;9.206;2023-07-20T13:23:51;3.40;;;1.10;;
11313;SDS011;5712;48.858;9.206;2023-07-20T13:26:17;1.98;;;1.10;;
11313;SDS011;5712;48.858;9.206;2023-07-20T13:28:44;2.85;;;0.90;;
11313;SDS011;5712;48.858;9.206;2023-07-20T13:31:10;1.98;;;1.20;;
11313;SDS011;5712;48.858;9.206;2023-07-20T13:33:37;1.30;;;1.20;;
11313;SDS011;5712;48.858;9.206;2023-07-20T13:36:04;1.33;;;1.08;;
11313;SDS011;5712;48.858;9.206;2023-07-20T13:38:33;1.60;;;1.20;;
11313;SDS011;5712;48.858;9.206;2023-07-20T13:41:01;2.05;;;1.27;;
11313;SDS011;5712;48.858;9.206;2023-07-20T13:43:27;1.45;;;1.30;;
11313;SDS011;5712;48.858;9.206;2023-07-20T13:45:54;1.80;;;1.15;;
11313;SDS011;5712;48.858;9.206;2023-07-20T13:48:20;2.70;;;1.10;;
11313;SDS011;5712;48.858;9.206;2023-07-20T13:50:48;3.20;;;1.20;;
11313;SDS011;5712;48.858;9.206;2023-07-20T13:53:14;3.50;;;1.58;;
11313;SDS011;5712;48.858;9.206;2023-07-20T13:55:41;1.70;;;1.30;;
11313;SDS011;5712;48.858;9.206;2023-07-20T13:58:09;1.03;;;0.90;;
11313;SDS011;5712;48.858;9.206;2023-07-20T14:00:36;3.53;;;1.40;;
11313;SDS011;5712;48.858;9.206;2023-07-20T14:03:02;1.58;;;1.30;;
11313;SDS011;5712;48.858;9.206;2023-07-20T14:05:29;1.58;;;1.15;;
11313;SDS011;5712;48.858;9.206;2023-07-20T14:07:55;3.08;;;1.27;;
11313;SDS011;5712;48.858;9.206;2023-07-20T14:10:22;2.10;;;1.42;;
11313;SDS011;5712;48.858;9.206;2023-07-20T14:12:49;2.35;;;1.48;;
11313;SDS011;5712;48.858;9.206;2023-07-20T14:15:17;2.63;;;1.10;;
11313;SDS011;5712;48.858;9.206;2023-07-20T14:17:45;2.33;;;1.17;;
11313;SDS011;5712;48.858;9.206;2023-07-20T14:20:11;1.08;;;1.00;;
11313;SDS011;5712;48.858;9.206;2023-07-20T14:22:38;1.48;;;1.15;;
11313;SDS011;5712;48.858;9.206;2023-07-20T14:25:07;2.38;;;1.17;;
11313;SDS011;5712;48.858;9.206;2023-07-20T14:27:34;1.50;;;1.38;;
11313;SDS011;5712;48.858;9.206;2023-07-20T14:30:00;2.42;;;1.38;;
11313;SDS011;5712;48.858;9.206;2023-07-20T14:32:28;1.50;;;1.25;;
11313;SDS011;5712;48.858;9.206;2023-07-20T14:34:56;1.42;;;1.10;;
11313;SDS011;5712;48.858;9.206;2023-07-20T14:37:22;3.13;;;1.65;;
11313;SDS011;5712;48.858;9.206;2023-07-20T14:39:49;1.90;;;1.10;;
11313;SDS011;5712;48.858;9.206;2023-07-20T14:42:15;2.80;;;1.20;;
11313;SDS011;5712;48.858;9.206;2023-07-20T14:44:43;1.40;;;1.25;;
11313;SDS011;5712;48.858;9.206;2023-07-20T14:47:09;1.10;;;1.00;;
11313;SDS011;5712;48.858;9.206;2023-07-20T14:49:37;6.13;;;1.10;;
11313;SDS011;5712;48.858;9.206;2023-07-20T14:52:04;1.40;;;1.10;;
11313;SDS011;5712;48.858;9.206;2023-07-20T14:54:31;2.97;;;1.05;;
11313;SDS011;5712;48.858;9.206;2023-07-20T14:56:58;2.92;;;1.38;;
11313;SDS011;5712;48.858;9.206;2023-07-20T14:59:24;1.40;;;1.00;;
11313;SDS011;5712;48.858;9.206;2023-07-20T15:01:51;1.30;;;1.00;;
11313;SDS011;5712;48.858;9.206;2023-07-20T15:04:18;1.02;;;0.93;;